Marathon, FL

4:10 PM EDT on September 17, 2014 (GMT -0400)
MARITIME | Change Station
CLOSE
Current Station
Personal Weather Station
Location: Marathon, FL
Elevation: 0 ft
Nearby Weather Stations

Elev 0 ft 24.63 °N, 81.11 °W | Updated 1 hour ago

Partly Cloudy
Partly Cloudy
84 °F
Feels Like 88 °F
N
1
Wind Variable Wind from SW
Gusts 2.0 mph

Today
High -- | Low -- °F
--% Chance of Precip.
Yesterday
High -- | Low -- °F
Precip. -- in
7:11 AM 7:26 PM
Waning Crescent, 33% visible
Pressure 29.91 in
Visibility 10.0 miles
Clouds Scattered Clouds 3000 ft
Scattered Clouds 25000 ft
Heat Index 88 °F
Dew Point 69 °F
Humidity 61%
Rainfall -999.00 in
Snow Depth Not available.
UV 7 out of 12
Pollen 4.00 out of 12
Air Quality Not available.
Flu Activity Not available.
METAR KNQX 171953Z 00000KT 10SM SCT030 SCT250 31/22 A2991 RMK AO2 SLP126 T03060217 $

More Conditions Fewer Conditions

Pressure 29.91 in
Visibility 10.0 miles
Clouds Scattered Clouds 3000 ft
Scattered Clouds 25000 ft
Heat Index 88 °F
Dew Point 69 °F
Humidity 61%
Rainfall -999.00 in
Snow Depth Not available.
UV 7 out of 12
Pollen 4.00 out of 12
Air Quality Not available.
Flu Activity Not available.
METAR KNQX 171953Z 00000KT 10SM SCT030 SCT250 31/22 A2991 RMK AO2 SLP126 T03060217 $

More Conditions Fewer Conditions

Nowcast | as of 2:24 PM EDT on September 17, 2014

Isolated showers will wax and wane as they drift southeastward across the coastal waters surrounding the island chain...the Florida The Straits south...and the Gulf waters beyond 20 nm west of Chokoloskee through 400 PM. These showers will contain light to moderate rain slightly reducing visibilities. Some island locations may see brief light rain producing several hundredths of an inch of rainfall.

×

10-Day Weather Forecast

Almanac

Astronomy

Sep. 17, 2014 Rise Set
Actual Time 7:11 AM EDT 7:26 PM EDT
Civil Twilight 6:48 AM EDT 7:48 PM EDT
Nautical Twilight 6:21 AM EDT 8:15 PM EDT
Astronomical Twilight 5:55 AM EDT 8:42 PM EDT
Moon 1:36 AM EDT 3:09 PM EDT
Length of Visible Light 13h 00m
Length of Day
12h 14m
Tomorrow will be 1m 25s shorter.
Waning Crescent, 33% of the Moon is Illuminated
Today
Waning Crescent
Sep 24
New
Oct 1
First Quarter
Oct 8
Full
Oct 15
Last Quarter

Today's Extremes

State Highs State Lows

Community

WunderPhotos

Upload Photos

1,754,157 photos uploaded!

Nearby

Snow Depth

Station Depth Elevation
No new snow has been reported.

Earthquake Activity

City Distance Mag. Time & Date
No recent earthquake activity has been reported nearby.
Minimum magnitude displayed is 2.5.

Coastal Water Temperatures

Place Temperature
Vaca Key, FL 88.0 °F
Key West, FL 84.9 °F

Nearby Weather Stations